createdAt,value
2018-07-16T00:00:25.013Z,0
2018-07-16T00:00:51.180Z,0
2018-07-16T00:01:17.311Z,0
2018-07-16T00:01:43.443Z,0
2018-07-16T00:02:09.583Z,0
2018-07-16T00:02:35.725Z,0
2018-07-16T00:03:01.889Z,0
2018-07-16T00:03:28.029Z,0
2018-07-16T00:03:54.167Z,0
2018-07-16T00:04:20.300Z,0
2018-07-16T00:04:46.448Z,0
2018-07-16T00:05:12.584Z,0
2018-07-16T00:05:38.741Z,0
2018-07-16T00:06:04.912Z,0
2018-07-16T00:06:31.050Z,0
2018-07-16T00:06:57.211Z,0
2018-07-16T00:07:23.357Z,0
2018-07-16T00:07:49.493Z,0
2018-07-16T00:08:15.631Z,0
2018-07-16T00:08:41.764Z,0
2018-07-16T00:09:07.910Z,0
2018-07-16T00:09:34.044Z,0
2018-07-16T00:10:00.209Z,0
2018-07-16T00:10:26.344Z,0
2018-07-16T00:10:52.485Z,0
2018-07-16T00:11:18.613Z,0
2018-07-16T00:11:44.753Z,0
2018-07-16T00:12:10.885Z,0
2018-07-16T00:12:37.032Z,0
2018-07-16T00:13:03.173Z,0
2018-07-16T00:13:29.311Z,0
2018-07-16T00:13:55.478Z,0
2018-07-16T00:14:21.614Z,0
2018-07-16T00:14:47.776Z,0
2018-07-16T00:15:13.907Z,0
2018-07-16T00:15:40.045Z,0
2018-07-16T00:16:06.183Z,0
2018-07-16T00:16:32.323Z,0
2018-07-16T00:16:58.463Z,0
2018-07-16T00:17:24.604Z,0
2018-07-16T00:17:50.740Z,0
2018-07-16T00:18:16.877Z,0
2018-07-16T00:18:43.019Z,0
2018-07-16T00:19:09.177Z,0
2018-07-16T00:19:35.318Z,0
2018-07-16T00:20:01.457Z,0
2018-07-16T00:20:27.592Z,0
2018-07-16T00:20:53.732Z,0
2018-07-16T00:21:19.870Z,0
2018-07-16T00:21:46.012Z,0
2018-07-16T00:22:12.147Z,0
2018-07-16T00:22:38.303Z,0
2018-07-16T00:23:04.447Z,0
2018-07-16T00:23:30.581Z,0
2018-07-16T00:23:56.718Z,0
2018-07-16T00:24:22.857Z,0
2018-07-16T00:24:49.026Z,0
2018-07-16T00:25:15.183Z,0
2018-07-16T00:25:41.326Z,0
2018-07-16T00:26:07.460Z,0
2018-07-16T00:26:33.601Z,0
2018-07-16T00:26:59.761Z,0
2018-07-16T00:27:25.907Z,0
2018-07-16T00:27:52.067Z,0
2018-07-16T00:28:18.206Z,0
2018-07-16T00:28:44.341Z,0
2018-07-16T00:29:10.479Z,0
2018-07-16T00:29:36.616Z,0
2018-07-16T00:30:02.761Z,0
2018-07-16T00:30:28.915Z,0
2018-07-16T00:30:55.064Z,0
2018-07-16T00:31:21.203Z,0
2018-07-16T00:31:47.343Z,0
2018-07-16T00:32:13.483Z,0
2018-07-16T00:32:39.622Z,0
2018-07-16T00:33:05.758Z,0
2018-07-16T00:33:31.934Z,0
2018-07-16T00:33:58.072Z,0
2018-07-16T00:34:24.209Z,0
2018-07-16T00:34:50.352Z,0
2018-07-16T00:35:16.517Z,0
2018-07-16T00:35:42.648Z,0
2018-07-16T00:36:08.819Z,0
2018-07-16T00:36:34.994Z,0
2018-07-16T00:37:01.155Z,0
2018-07-16T00:37:27.293Z,0
2018-07-16T00:37:53.451Z,0
2018-07-16T00:38:19.586Z,0
2018-07-16T00:38:45.726Z,0
2018-07-16T00:39:11.875Z,0
2018-07-16T00:39:38.010Z,0
2018-07-16T00:40:04.142Z,0
2018-07-16T00:40:30.281Z,0
2018-07-16T00:40:56.421Z,0
2018-07-16T00:41:22.563Z,0
2018-07-16T00:41:48.725Z,0
2018-07-16T00:42:14.864Z,0
2018-07-16T00:42:40.999Z,0
2018-07-16T00:43:07.139Z,0
2018-07-16T00:43:33.273Z,0
2018-07-16T00:43:59.414Z,0
2018-07-16T00:44:25.591Z,0
2018-07-16T00:44:51.698Z,0
2018-07-16T00:45:17.835Z,0
2018-07-16T00:45:43.996Z,0
2018-07-16T00:46:10.136Z,0
2018-07-16T00:46:36.274Z,0
2018-07-16T00:47:02.412Z,0
2018-07-16T00:47:28.549Z,0
2018-07-16T00:47:54.714Z,0
2018-07-16T00:48:20.851Z,0
2018-07-16T00:48:46.987Z,0
2018-07-16T00:49:13.124Z,0
2018-07-16T00:49:39.266Z,0
2018-07-16T00:50:05.406Z,0
2018-07-16T00:50:31.543Z,0
2018-07-16T00:50:57.687Z,0
2018-07-16T00:51:23.821Z,0
2018-07-16T00:51:49.962Z,0
2018-07-16T00:52:16.097Z,0
2018-07-16T00:52:42.237Z,0
2018-07-16T00:53:08.378Z,0
2018-07-16T00:53:34.534Z,0
2018-07-16T00:54:00.671Z,0
2018-07-16T00:54:26.812Z,0
2018-07-16T00:54:52.943Z,0
2018-07-16T00:55:19.084Z,0
2018-07-16T00:55:46.160Z,0
2018-07-16T00:56:12.253Z,0
2018-07-16T00:56:38.419Z,0
2018-07-16T00:57:04.573Z,0
2018-07-16T00:57:30.754Z,0
2018-07-16T00:57:56.876Z,0
2018-07-16T00:58:23.035Z,0
2018-07-16T00:58:49.172Z,0
2018-07-16T00:59:15.329Z,0
2018-07-16T00:59:41.501Z,0
2018-07-16T01:00:07.638Z,0
2018-07-16T01:00:33.772Z,0
2018-07-16T01:00:59.911Z,0
2018-07-16T01:01:26.048Z,0
2018-07-16T01:01:52.203Z,0
2018-07-16T01:02:18.347Z,0
2018-07-16T01:02:44.487Z,0
2018-07-16T01:03:10.628Z,0
2018-07-16T01:03:36.760Z,0
2018-07-16T01:04:02.902Z,0
2018-07-16T01:04:29.044Z,0
2018-07-16T01:04:55.181Z,0
2018-07-16T01:05:21.315Z,0
2018-07-16T01:05:47.455Z,0
2018-07-16T01:06:13.599Z,0
2018-07-16T01:06:39.731Z,0
2018-07-16T01:07:05.877Z,0
2018-07-16T01:07:32.015Z,0
2018-07-16T01:07:58.149Z,0
2018-07-16T01:08:24.295Z,0
2018-07-16T01:08:50.437Z,0
2018-07-16T01:09:16.571Z,0
2018-07-16T01:09:42.714Z,0
2018-07-16T01:10:08.852Z,0
2018-07-16T01:10:35.014Z,0
2018-07-16T01:11:01.169Z,0
2018-07-16T01:11:27.311Z,0
2018-07-16T01:11:53.477Z,0
2018-07-16T01:12:19.608Z,0
2018-07-16T01:12:45.746Z,0
2018-07-16T01:13:11.888Z,0
2018-07-16T01:13:38.028Z,0
2018-07-16T01:14:04.165Z,0
2018-07-16T01:14:30.302Z,0
2018-07-16T01:14:56.445Z,0
2018-07-16T01:15:22.582Z,0
2018-07-16T01:15:48.719Z,0
2018-07-16T01:16:14.857Z,0
2018-07-16T01:16:41.015Z,0
2018-07-16T01:17:07.159Z,0
2018-07-16T01:17:33.303Z,0
2018-07-16T01:17:59.436Z,0
2018-07-16T01:18:25.572Z,0
2018-07-16T01:18:51.715Z,0
2018-07-16T01:19:17.848Z,0
2018-07-16T01:19:43.986Z,0
2018-07-16T01:20:10.124Z,0
2018-07-16T01:20:36.287Z,0
2018-07-16T01:21:02.449Z,0
2018-07-16T01:21:28.588Z,0
2018-07-16T01:21:54.752Z,0
2018-07-16T01:22:20.915Z,0
2018-07-16T01:22:47.053Z,0
2018-07-16T01:23:13.238Z,0
2018-07-16T01:23:39.385Z,0
2018-07-16T01:24:05.541Z,0
2018-07-16T01:24:31.680Z,0
2018-07-16T01:24:57.845Z,0
2018-07-16T01:25:23.987Z,0
2018-07-16T01:25:50.121Z,0
2018-07-16T01:26:16.257Z,0
2018-07-16T01:26:42.395Z,0
2018-07-16T01:27:08.539Z,0
2018-07-16T01:27:34.675Z,0
2018-07-16T01:28:00.808Z,0
2018-07-16T01:28:26.949Z,0
2018-07-16T01:28:53.092Z,0
2018-07-16T01:29:19.228Z,0
2018-07-16T01:29:45.361Z,0
2018-07-16T01:30:11.528Z,0
2018-07-16T01:30:37.666Z,0
2018-07-16T01:31:03.801Z,0
2018-07-16T01:31:29.938Z,0
2018-07-16T01:31:56.082Z,0
2018-07-16T01:32:22.272Z,0
2018-07-16T01:32:48.406Z,0
2018-07-16T01:33:14.567Z,0
2018-07-16T01:33:40.711Z,0
2018-07-16T01:34:06.847Z,0
2018-07-16T01:34:32.983Z,0
2018-07-16T01:34:59.130Z,0
2018-07-16T01:35:25.288Z,0
2018-07-16T01:35:51.456Z,0
2018-07-16T01:36:17.593Z,0
2018-07-16T01:36:43.743Z,0
2018-07-16T01:37:09.909Z,0
2018-07-16T01:37:36.056Z,0
2018-07-16T01:38:02.234Z,0
2018-07-16T01:38:28.369Z,0
2018-07-16T01:38:54.503Z,0
2018-07-16T01:39:20.644Z,0
2018-07-16T01:39:46.780Z,0
2018-07-16T01:40:12.915Z,0
2018-07-16T01:40:39.075Z,0
2018-07-16T01:41:05.211Z,0
2018-07-16T01:41:31.343Z,0
2018-07-16T01:41:57.480Z,0
2018-07-16T01:42:23.641Z,0
2018-07-16T01:42:49.800Z,0
2018-07-16T01:43:15.941Z,0
2018-07-16T01:43:42.075Z,0
2018-07-16T01:44:08.240Z,0
2018-07-16T01:44:34.398Z,0
2018-07-16T01:45:00.532Z,0
2018-07-16T01:45:26.666Z,0
2018-07-16T01:45:52.830Z,0
2018-07-16T01:46:18.966Z,0
2018-07-16T01:46:45.107Z,0
2018-07-16T01:47:11.248Z,0
2018-07-16T01:47:37.381Z,0
2018-07-16T01:48:03.547Z,0
2018-07-16T01:48:29.686Z,0
2018-07-16T01:48:55.827Z,0
2018-07-16T01:49:21.960Z,0
2018-07-16T01:49:48.097Z,0
2018-07-16T01:50:14.240Z,0
2018-07-16T01:50:40.376Z,0
2018-07-16T01:51:06.517Z,0
2018-07-16T01:51:32.651Z,0
2018-07-16T01:51:58.798Z,0
2018-07-16T01:52:24.931Z,0
2018-07-16T01:52:51.098Z,0
2018-07-16T01:53:17.230Z,0
2018-07-16T01:53:43.373Z,0
2018-07-16T01:54:09.536Z,0
2018-07-16T01:54:35.703Z,0
2018-07-16T01:55:01.836Z,0
2018-07-16T01:55:28.007Z,0
2018-07-16T01:55:54.148Z,0
2018-07-16T01:56:20.285Z,0
2018-07-16T01:56:46.423Z,0
2018-07-16T01:57:12.579Z,0
2018-07-16T01:57:38.744Z,0
2018-07-16T01:58:04.883Z,0
2018-07-16T01:58:31.044Z,0
2018-07-16T01:58:57.179Z,0
2018-07-16T01:59:23.319Z,0
2018-07-16T01:59:49.454Z,0
2018-07-16T02:00:15.587Z,0
2018-07-16T02:00:41.723Z,0
2018-07-16T02:01:07.863Z,0
2018-07-16T02:01:34.000Z,0
2018-07-16T02:02:00.136Z,0
2018-07-16T02:02:26.267Z,0
2018-07-16T02:02:52.430Z,0
2018-07-16T02:03:18.567Z,0
2018-07-16T02:03:44.701Z,0
2018-07-16T02:04:10.839Z,0
2018-07-16T02:04:37.007Z,0
2018-07-16T02:05:03.137Z,0
2018-07-16T02:05:29.304Z,0
2018-07-16T02:05:55.435Z,0
2018-07-16T02:06:21.575Z,0
2018-07-16T02:06:47.711Z,0
2018-07-16T02:07:13.877Z,0
2018-07-16T02:07:40.007Z,0
2018-07-16T02:08:06.150Z,0
2018-07-16T02:08:32.310Z,0
2018-07-16T02:08:58.445Z,0
2018-07-16T02:09:24.589Z,0
2018-07-16T02:09:50.749Z,0
2018-07-16T02:10:16.915Z,0
2018-07-16T02:10:43.050Z,0
2018-07-16T02:11:09.189Z,0
2018-07-16T02:11:35.333Z,0
2018-07-16T02:12:01.466Z,0
2018-07-16T02:12:27.600Z,0
2018-07-16T02:12:53.750Z,0
2018-07-16T02:13:19.881Z,0
2018-07-16T02:13:46.028Z,0
2018-07-16T02:14:12.167Z,0
2018-07-16T02:14:38.307Z,0
2018-07-16T02:15:04.468Z,0
2018-07-16T02:15:30.631Z,0
2018-07-16T02:15:56.769Z,0
2018-07-16T02:16:22.914Z,0
2018-07-16T02:16:49.070Z,0
2018-07-16T02:17:15.211Z,0
2018-07-16T02:17:41.354Z,0
2018-07-16T02:18:07.518Z,0
2018-07-16T02:18:33.657Z,0
2018-07-16T02:18:59.799Z,0
2018-07-16T02:19:25.933Z,0
2018-07-16T02:19:52.075Z,0
2018-07-16T02:20:18.209Z,0
2018-07-16T02:20:44.351Z,0
2018-07-16T02:21:10.520Z,0
2018-07-16T02:21:36.680Z,0
2018-07-16T02:22:02.898Z,0
2018-07-16T02:22:29.002Z,0
2018-07-16T02:22:55.141Z,0
2018-07-16T02:23:21.300Z,0
2018-07-16T02:23:47.429Z,0
2018-07-16T02:24:13.572Z,0
2018-07-16T02:24:39.713Z,0
2018-07-16T02:25:05.841Z,0
2018-07-16T02:25:31.982Z,0
2018-07-16T02:25:58.122Z,0
2018-07-16T02:26:24.283Z,0
2018-07-16T02:26:50.422Z,0
2018-07-16T02:27:16.564Z,0
2018-07-16T02:27:42.700Z,0
2018-07-16T02:28:08.850Z,0
2018-07-16T02:28:35.004Z,0
2018-07-16T02:29:01.142Z,0
2018-07-16T02:29:27.301Z,0
2018-07-16T02:29:53.454Z,0
2018-07-16T02:30:19.597Z,0
2018-07-16T02:30:45.753Z,0
2018-07-16T02:31:11.931Z,0
2018-07-16T02:31:38.073Z,0
2018-07-16T02:32:04.215Z,0
2018-07-16T02:32:30.370Z,0
2018-07-16T02:32:56.502Z,0
2018-07-16T02:33:22.639Z,0
2018-07-16T02:33:48.831Z,0
2018-07-16T02:34:15.018Z,0
2018-07-16T02:34:41.199Z,0
2018-07-16T02:35:07.358Z,0
2018-07-16T02:35:33.560Z,0
2018-07-16T02:35:59.739Z,0
2018-07-16T02:36:25.909Z,0
2018-07-16T02:36:52.063Z,0
2018-07-16T02:37:18.226Z,0
2018-07-16T02:37:44.433Z,0
2018-07-16T02:38:10.590Z,0
2018-07-16T02:38:36.742Z,0
2018-07-16T02:39:02.898Z,0
2018-07-16T02:39:29.048Z,0
2018-07-16T02:39:55.207Z,0
2018-07-16T02:40:21.373Z,0
2018-07-16T02:40:47.535Z,0
2018-07-16T02:41:13.725Z,0
2018-07-16T02:41:39.891Z,0
2018-07-16T02:42:06.021Z,0
2018-07-16T02:42:32.159Z,4
2018-07-16T02:42:58.348Z,4
2018-07-16T02:43:24.528Z,4
2018-07-16T02:43:50.701Z,4
2018-07-16T02:44:16.846Z,4
2018-07-16T02:44:42.998Z,4
2018-07-16T02:45:09.166Z,0
2018-07-16T02:45:35.346Z,0
2018-07-16T02:46:01.503Z,0
2018-07-16T02:46:27.638Z,0
2018-07-16T02:46:53.847Z,4
2018-07-16T02:47:19.993Z,4
2018-07-16T02:47:46.164Z,4
2018-07-16T02:48:12.349Z,4
2018-07-16T02:48:38.481Z,4
2018-07-16T02:49:04.639Z,4
2018-07-16T02:49:30.796Z,4
2018-07-16T02:49:56.947Z,4
2018-07-16T02:50:23.091Z,4
2018-07-16T02:50:49.252Z,4
2018-07-16T02:51:15.390Z,8
2018-07-16T02:51:41.559Z,8
2018-07-16T02:52:07.693Z,4
2018-07-16T02:52:33.862Z,4
2018-07-16T02:53:00.000Z,8
2018-07-16T02:53:26.166Z,8
2018-07-16T02:53:52.346Z,4
2018-07-16T02:54:18.504Z,8
2018-07-16T02:54:44.673Z,8
2018-07-16T02:55:10.813Z,8
2018-07-16T02:55:36.946Z,8
2018-07-16T02:56:03.103Z,12
2018-07-16T02:56:29.362Z,8
2018-07-16T02:56:55.407Z,12
2018-07-16T02:57:21.543Z,12
2018-07-16T02:57:47.712Z,12
2018-07-16T02:58:13.850Z,12
2018-07-16T02:58:40.005Z,12
2018-07-16T02:59:06.148Z,16
2018-07-16T02:59:32.315Z,12
2018-07-16T02:59:58.451Z,16
2018-07-16T03:00:24.702Z,16
2018-07-16T03:00:50.958Z,16
2018-07-16T03:01:17.305Z,20
2018-07-16T03:01:43.588Z,20
2018-07-16T03:02:09.895Z,20
2018-07-16T03:02:36.206Z,24
2018-07-16T03:03:02.384Z,24
2018-07-16T03:03:28.574Z,24
2018-07-16T03:03:54.763Z,24
2018-07-16T03:04:20.926Z,28
2018-07-16T03:04:47.108Z,28
2018-07-16T03:05:13.265Z,32
2018-07-16T03:05:39.480Z,32
2018-07-16T03:06:05.622Z,32
2018-07-16T03:06:31.801Z,36
2018-07-16T03:06:58.007Z,36
2018-07-16T03:07:24.217Z,40
2018-07-16T03:07:50.360Z,44
2018-07-16T03:08:16.546Z,48
2018-07-16T03:08:42.719Z,48
2018-07-16T03:09:08.856Z,52
2018-07-16T03:09:35.004Z,52
2018-07-16T03:10:01.146Z,56
2018-07-16T03:10:27.300Z,60
2018-07-16T03:10:53.473Z,60
2018-07-16T03:11:19.648Z,64
2018-07-16T03:11:45.840Z,68
2018-07-16T03:12:11.997Z,72
2018-07-16T03:12:38.182Z,72
2018-07-16T03:13:04.347Z,76
2018-07-16T03:13:30.490Z,84
2018-07-16T03:13:56.680Z,84
2018-07-16T03:14:22.838Z,88
2018-07-16T03:14:49.004Z,92
2018-07-16T03:15:15.166Z,100
2018-07-16T03:15:41.323Z,104
2018-07-16T03:16:07.483Z,108
2018-07-16T03:16:33.620Z,112
2018-07-16T03:16:59.796Z,116
2018-07-16T03:17:25.963Z,120
2018-07-16T03:17:52.203Z,128
2018-07-16T03:18:18.289Z,132
2018-07-16T03:18:44.425Z,140
2018-07-16T03:19:10.612Z,148
2018-07-16T03:19:36.765Z,152
2018-07-16T03:20:02.936Z,160
2018-07-16T03:20:29.117Z,164
2018-07-16T03:20:55.283Z,176
2018-07-16T03:21:21.426Z,180
2018-07-16T03:21:47.613Z,188
2018-07-16T03:22:13.751Z,196
2018-07-16T03:22:39.887Z,204
2018-07-16T03:23:06.048Z,208
2018-07-16T03:23:32.216Z,220
2018-07-16T03:23:58.353Z,224
2018-07-16T03:24:24.495Z,236
2018-07-16T03:24:50.686Z,244
2018-07-16T03:25:16.851Z,256
2018-07-16T03:25:42.984Z,264
2018-07-16T03:26:09.150Z,272
2018-07-16T03:26:35.288Z,280
2018-07-16T03:27:01.430Z,292
2018-07-16T03:27:27.571Z,300
2018-07-16T03:27:53.714Z,312
2018-07-16T03:28:19.883Z,324
2018-07-16T03:28:46.027Z,332
2018-07-16T03:29:12.162Z,340
2018-07-16T03:29:38.304Z,352
2018-07-16T03:30:04.447Z,368
2018-07-16T03:30:30.681Z,376
2018-07-16T03:30:56.848Z,388
2018-07-16T03:31:23.034Z,400
2018-07-16T03:31:49.246Z,412
2018-07-16T03:32:15.404Z,424
2018-07-16T03:32:41.547Z,436
2018-07-16T03:33:07.681Z,452
2018-07-16T03:33:33.822Z,468
2018-07-16T03:33:59.981Z,480
2018-07-16T03:34:26.144Z,492
2018-07-16T03:34:52.328Z,504
2018-07-16T03:35:18.505Z,520
2018-07-16T03:35:44.646Z,536
2018-07-16T03:36:10.780Z,552
2018-07-16T03:36:36.946Z,564
2018-07-16T03:37:03.114Z,580
2018-07-16T03:37:29.246Z,596
2018-07-16T03:37:55.395Z,608
2018-07-16T03:38:21.529Z,624
2018-07-16T03:38:47.666Z,640
2018-07-16T03:39:13.827Z,660
2018-07-16T03:39:39.966Z,672
2018-07-16T03:40:06.108Z,688
2018-07-16T03:40:32.266Z,704
2018-07-16T03:40:58.439Z,720
2018-07-16T03:41:24.598Z,740
2018-07-16T03:41:50.753Z,756
2018-07-16T03:42:16.889Z,772
2018-07-16T03:42:43.027Z,788
2018-07-16T03:43:09.162Z,808
2018-07-16T03:43:35.306Z,824
2018-07-16T03:44:01.462Z,844
2018-07-16T03:44:27.605Z,860
2018-07-16T03:44:53.745Z,876
2018-07-16T03:45:19.879Z,900
2018-07-16T03:45:46.015Z,916
2018-07-16T03:46:12.157Z,932
2018-07-16T03:46:38.294Z,952
2018-07-16T03:47:04.455Z,972
2018-07-16T03:47:30.592Z,988
2018-07-16T03:47:56.782Z,1008
2018-07-16T03:48:22.892Z,1024
2018-07-16T03:48:49.027Z,1044
2018-07-16T03:49:15.163Z,1064
2018-07-16T03:49:41.308Z,1084
2018-07-16T03:50:07.445Z,1100
2018-07-16T03:50:33.579Z,1120
2018-07-16T03:50:59.739Z,1140
2018-07-16T03:51:25.901Z,1160
2018-07-16T03:51:52.060Z,1180
2018-07-16T03:52:18.198Z,1200
2018-07-16T03:52:44.334Z,1216
2018-07-16T03:53:10.494Z,1244
2018-07-16T03:53:36.630Z,1280
2018-07-16T03:54:02.763Z,1316
2018-07-16T03:54:28.966Z,1348
2018-07-16T03:54:55.049Z,1404
2018-07-16T03:55:21.207Z,1532
2018-07-16T03:55:47.420Z,1620
2018-07-16T03:56:13.480Z,1632
2018-07-16T03:56:39.648Z,1604
2018-07-16T03:57:05.779Z,1516
2018-07-16T03:57:31.918Z,1448
2018-07-16T03:57:58.065Z,1448
2018-07-16T03:58:24.201Z,1472
2018-07-16T03:58:50.341Z,1488
2018-07-16T03:59:16.533Z,1512
2018-07-16T03:59:42.710Z,1528
2018-07-16T04:00:08.854Z,1548
2018-07-16T04:00:35.009Z,1568
2018-07-16T04:01:01.228Z,1588
2018-07-16T04:01:27.422Z,1608
2018-07-16T04:01:53.521Z,1628
2018-07-16T04:02:19.684Z,1644
2018-07-16T04:02:45.826Z,1664
2018-07-16T04:03:11.984Z,1684
2018-07-16T04:03:38.125Z,1704
2018-07-16T04:04:04.283Z,1724
2018-07-16T04:04:30.424Z,1744
2018-07-16T04:04:56.556Z,1764
2018-07-16T04:05:22.701Z,1780
2018-07-16T04:05:48.838Z,1800
2018-07-16T04:06:14.974Z,1820
2018-07-16T04:06:41.117Z,1844
2018-07-16T04:07:07.277Z,1860
2018-07-16T04:07:33.413Z,1880
2018-07-16T04:07:59.557Z,1900
2018-07-16T04:08:25.696Z,1916
2018-07-16T04:08:51.833Z,1940
2018-07-16T04:09:17.980Z,1956
2018-07-16T04:09:44.117Z,1976
2018-07-16T04:10:10.258Z,1996
2018-07-16T04:10:36.392Z,2012
2018-07-16T04:11:02.524Z,2036
2018-07-16T04:11:28.667Z,2052
2018-07-16T04:11:54.831Z,2072
2018-07-16T04:12:21.012Z,2092
2018-07-16T04:12:47.155Z,2112
2018-07-16T04:13:13.320Z,2128
2018-07-16T04:13:39.456Z,2144
2018-07-16T04:14:05.618Z,2164
2018-07-16T04:14:31.755Z,2184
2018-07-16T04:14:57.900Z,2204
2018-07-16T04:15:24.045Z,2220
2018-07-16T04:15:50.196Z,2240
2018-07-16T04:16:16.388Z,2256
2018-07-16T04:16:42.525Z,2272
2018-07-16T04:17:08.692Z,2292
2018-07-16T04:17:34.826Z,2308
2018-07-16T04:18:00.967Z,2324
2018-07-16T04:18:27.099Z,2344
2018-07-16T04:18:53.235Z,2364
2018-07-16T04:19:19.389Z,2380
2018-07-16T04:19:45.523Z,2404
2018-07-16T04:20:11.660Z,2476
2018-07-16T04:20:37.841Z,2704
2018-07-16T04:21:04.010Z,2892
2018-07-16T04:21:30.146Z,2976
2018-07-16T04:21:56.280Z,2972
2018-07-16T04:22:22.417Z,2844
2018-07-16T04:22:48.555Z,2668
2018-07-16T04:23:14.698Z,2568
2018-07-16T04:23:40.835Z,2552
2018-07-16T04:24:06.966Z,2568
2018-07-16T04:24:33.139Z,2588
2018-07-16T04:24:59.277Z,2604
2018-07-16T04:25:25.419Z,2616
2018-07-16T04:25:51.558Z,2640
2018-07-16T04:26:17.690Z,2652
2018-07-16T04:26:43.836Z,2672
2018-07-16T04:27:09.971Z,2692
2018-07-16T04:27:36.120Z,2708
2018-07-16T04:28:02.254Z,2728
2018-07-16T04:28:28.393Z,2748
2018-07-16T04:28:54.532Z,2772
2018-07-16T04:29:20.669Z,2792
2018-07-16T04:29:46.831Z,2816
2018-07-16T04:30:12.987Z,2836
2018-07-16T04:30:39.126Z,2856
2018-07-16T04:31:05.272Z,2880
2018-07-16T04:31:31.404Z,2900
2018-07-16T04:31:57.537Z,2920
2018-07-16T04:32:23.681Z,2940
2018-07-16T04:32:49.818Z,2960
2018-07-16T04:33:15.956Z,2980
2018-07-16T04:33:42.100Z,3000
2018-07-16T04:34:08.260Z,3024
2018-07-16T04:34:34.391Z,3044
2018-07-16T04:35:00.560Z,3064
2018-07-16T04:35:26.719Z,3080
2018-07-16T04:35:52.919Z,3100
2018-07-16T04:36:19.042Z,3120
2018-07-16T04:36:45.210Z,3136
2018-07-16T04:37:11.375Z,3156
2018-07-16T04:37:37.557Z,3172
2018-07-16T04:38:03.691Z,3192
2018-07-16T04:38:29.835Z,3212
2018-07-16T04:38:55.970Z,3240
2018-07-16T04:39:22.111Z,3260
2018-07-16T04:39:48.329Z,3280
2018-07-16T04:40:14.405Z,3304
2018-07-16T04:40:40.546Z,3324
2018-07-16T04:41:06.678Z,3344
2018-07-16T04:41:32.819Z,3364
2018-07-16T04:41:58.986Z,3384
2018-07-16T04:42:25.154Z,3408
2018-07-16T04:42:51.289Z,3432
2018-07-16T04:43:17.432Z,3460
2018-07-16T04:43:43.587Z,3484
2018-07-16T04:44:09.723Z,3508
2018-07-16T04:44:35.908Z,3540
2018-07-16T04:45:02.049Z,3568
2018-07-16T04:45:28.209Z,3596
2018-07-16T04:45:54.339Z,3628
2018-07-16T04:46:20.482Z,3656
2018-07-16T04:46:46.614Z,3684
2018-07-16T04:47:12.756Z,3716
2018-07-16T04:47:38.887Z,3752
2018-07-16T04:48:05.034Z,3792
2018-07-16T04:48:31.174Z,3832
2018-07-16T04:48:57.309Z,3876
2018-07-16T04:49:23.450Z,3924
2018-07-16T04:49:49.604Z,3988
2018-07-16T04:50:15.754Z,4064
2018-07-16T04:50:41.897Z,4152
2018-07-16T04:51:08.031Z,4272
2018-07-16T04:51:34.194Z,4460
2018-07-16T04:52:00.328Z,5276
2018-07-16T04:52:26.469Z,7292
2018-07-16T04:52:52.650Z,10244
2018-07-16T04:53:18.816Z,13732
2018-07-16T04:53:44.960Z,17216
2018-07-16T04:54:11.101Z,20128
2018-07-16T04:54:37.233Z,22080
2018-07-16T04:55:03.375Z,22528
2018-07-16T04:55:29.513Z,22752
2018-07-16T04:55:55.652Z,23040
2018-07-16T04:56:21.809Z,23232
2018-07-16T04:56:47.945Z,23488
2018-07-16T04:57:14.090Z,23488
2018-07-16T04:57:40.221Z,22944
2018-07-16T04:58:06.360Z,22080
2018-07-16T04:58:32.501Z,20800
2018-07-16T04:58:58.637Z,19296
2018-07-16T04:59:24.768Z,17440
2018-07-16T04:59:50.914Z,15520
2018-07-16T05:00:17.075Z,13292
2018-07-16T05:00:43.238Z,10864
2018-07-16T05:01:09.381Z,8460
2018-07-16T05:01:35.526Z,6704
2018-07-16T05:02:01.659Z,5824
2018-07-16T05:02:27.799Z,5652
2018-07-16T05:02:53.938Z,5580
2018-07-16T05:03:20.172Z,5536
2018-07-16T05:03:46.254Z,5476
2018-07-16T05:04:12.395Z,5432
2018-07-16T05:04:38.531Z,5364
2018-07-16T05:05:04.666Z,5328
2018-07-16T05:05:30.808Z,5280
2018-07-16T05:05:56.945Z,5252
2018-07-16T05:06:23.088Z,5216
2018-07-16T05:06:49.219Z,5192
2018-07-16T05:07:15.362Z,5172
2018-07-16T05:07:41.511Z,5156
2018-07-16T05:08:07.646Z,5156
2018-07-16T05:08:33.780Z,5144
2018-07-16T05:08:59.925Z,5136
2018-07-16T05:09:26.061Z,5132
2018-07-16T05:09:52.207Z,5116
2018-07-16T05:10:18.337Z,5116
2018-07-16T05:10:44.481Z,5124
2018-07-16T05:11:10.614Z,5116
2018-07-16T05:11:36.758Z,5112
2018-07-16T05:12:02.919Z,5104
2018-07-16T05:12:29.063Z,5128
2018-07-16T05:12:55.198Z,5116
2018-07-16T05:13:21.341Z,5120
2018-07-16T05:13:47.484Z,5112
2018-07-16T05:14:13.618Z,5100
2018-07-16T05:14:39.762Z,5096
2018-07-16T05:15:05.904Z,5092
2018-07-16T05:15:32.049Z,5084
2018-07-16T05:15:58.199Z,5076
2018-07-16T05:16:24.344Z,5072
2018-07-16T05:16:50.479Z,5056
2018-07-16T05:17:16.651Z,5068
2018-07-16T05:17:42.810Z,5064
2018-07-16T05:18:09.075Z,5040
2018-07-16T05:18:35.223Z,5060
2018-07-16T05:19:01.297Z,5076
2018-07-16T05:19:27.463Z,5064
2018-07-16T05:19:53.595Z,5072
2018-07-16T05:20:19.740Z,5068
2018-07-16T05:20:45.880Z,5072
2018-07-16T05:21:12.018Z,5100
2018-07-16T05:21:38.172Z,5088
2018-07-16T05:22:04.315Z,5092
2018-07-16T05:22:30.460Z,5096
2018-07-16T05:22:56.596Z,5096
2018-07-16T05:23:22.758Z,5112
2018-07-16T05:23:48.900Z,5128
2018-07-16T05:24:15.081Z,5128
2018-07-16T05:24:41.212Z,5148
2018-07-16T05:25:07.359Z,5160
2018-07-16T05:25:33.493Z,5168
2018-07-16T05:25:59.634Z,5156
2018-07-16T05:26:25.776Z,5164
2018-07-16T05:26:51.937Z,5152
2018-07-16T05:27:18.072Z,5144
2018-07-16T05:27:44.213Z,5156
2018-07-16T05:28:10.354Z,5164
2018-07-16T05:28:36.488Z,5164
2018-07-16T05:29:02.628Z,5188
2018-07-16T05:29:28.763Z,5196
2018-07-16T05:29:54.909Z,5216
2018-07-16T05:30:21.047Z,5232
2018-07-16T05:30:47.188Z,5248
2018-07-16T05:31:13.318Z,5244
2018-07-16T05:31:39.505Z,5240
2018-07-16T05:32:05.753Z,5248
2018-07-16T05:32:31.934Z,5256
2018-07-16T05:32:58.005Z,5264
2018-07-16T05:33:24.168Z,5272
2018-07-16T05:33:50.303Z,5292
2018-07-16T05:34:16.449Z,5312
2018-07-16T05:34:42.602Z,5340
2018-07-16T05:35:08.731Z,5348
2018-07-16T05:35:34.870Z,5336
2018-07-16T05:36:01.014Z,5364
2018-07-16T05:36:27.176Z,5376
2018-07-16T05:36:53.317Z,5372
2018-07-16T05:37:19.453Z,5380
2018-07-16T05:37:45.590Z,5392
2018-07-16T05:38:11.827Z,5416
2018-07-16T05:38:37.917Z,5420
2018-07-16T05:39:04.085Z,5424
2018-07-16T05:39:30.230Z,5444
2018-07-16T05:39:56.392Z,5460
2018-07-16T05:40:22.558Z,5460
2018-07-16T05:40:48.701Z,5472
2018-07-16T05:41:14.840Z,5472
2018-07-16T05:41:40.984Z,5500
2018-07-16T05:42:07.121Z,5508
2018-07-16T05:42:33.255Z,5512
2018-07-16T05:42:59.401Z,5528
2018-07-16T05:43:25.538Z,5536
2018-07-16T05:43:51.678Z,5552
2018-07-16T05:44:17.823Z,5556
2018-07-16T05:44:43.954Z,5568
2018-07-16T05:45:10.103Z,5584
2018-07-16T05:45:36.280Z,5600
2018-07-16T05:46:02.427Z,5612
2018-07-16T05:46:28.590Z,5640
2018-07-16T05:46:54.754Z,5640
2018-07-16T05:47:20.892Z,5656
2018-07-16T05:47:47.038Z,5648
2018-07-16T05:48:13.171Z,5660
2018-07-16T05:48:39.305Z,5692
2018-07-16T05:49:05.454Z,5708
2018-07-16T05:49:31.587Z,5704
2018-07-16T05:49:57.725Z,5712
2018-07-16T05:50:23.864Z,5732
2018-07-16T05:50:50.007Z,5740
2018-07-16T05:51:16.141Z,5740
2018-07-16T05:51:42.288Z,5732
2018-07-16T05:52:08.423Z,5740
2018-07-16T05:52:34.581Z,5748
2018-07-16T05:53:00.740Z,5760
2018-07-16T05:53:26.888Z,5776
2018-07-16T05:53:53.018Z,5780
2018-07-16T05:54:19.168Z,5788
2018-07-16T05:54:45.307Z,5788
2018-07-16T05:55:11.451Z,5800
2018-07-16T05:55:37.592Z,5800
2018-07-16T05:56:03.771Z,5816
2018-07-16T05:56:29.910Z,5824
2018-07-16T05:56:56.069Z,5832
2018-07-16T05:57:22.210Z,5836
2018-07-16T05:57:48.344Z,5840
2018-07-16T05:58:14.522Z,5836
2018-07-16T05:58:40.676Z,5856
2018-07-16T05:59:06.820Z,5864
2018-07-16T05:59:32.957Z,5872
2018-07-16T05:59:59.096Z,5884
2018-07-16T06:00:25.273Z,5892
2018-07-16T06:00:51.421Z,5896
2018-07-16T06:01:17.560Z,5904
2018-07-16T06:01:43.725Z,5908
2018-07-16T06:02:09.869Z,5916
2018-07-16T06:02:36.005Z,5916
2018-07-16T06:03:02.142Z,5928
2018-07-16T06:03:28.283Z,5936
2018-07-16T06:03:54.421Z,5952
2018-07-16T06:04:20.583Z,5964
2018-07-16T06:04:46.720Z,5976
2018-07-16T06:05:12.891Z,5984
2018-07-16T06:05:39.049Z,5980
2018-07-16T06:06:05.219Z,5992
2018-07-16T06:06:31.354Z,6004
2018-07-16T06:06:57.496Z,6008
2018-07-16T06:07:23.634Z,6020
2018-07-16T06:07:49.774Z,6020